createdAt,value
2023-05-05T12:49:47.296Z,98346.81
2023-05-05T12:52:49.552Z,98345.53
2023-05-05T12:55:51.906Z,98347.16
2023-05-05T12:58:55.537Z,98346.34
2023-05-05T13:02:00.126Z,98349.03
2023-05-05T13:05:01.754Z,98348.53
2023-05-05T13:08:03.506Z,98349.75
2023-05-05T13:11:04.913Z,98346.63
2023-05-05T13:14:07.034Z,98345.53
2023-05-05T13:20:24.705Z,98338.44
2023-05-05T13:23:28.714Z,98340.28
2023-05-05T13:30:01.158Z,98338.69
2023-05-05T13:33:10.158Z,98331.09
2023-05-05T13:36:14.779Z,98340.25
2023-05-05T13:44:08.995Z,98332.84
2023-05-05T13:47:10.459Z,98327.31
2023-05-05T13:50:12.382Z,98326.03
2023-05-05T13:53:14.656Z,98331.38
2023-05-05T13:56:19.962Z,98334.22
2023-05-05T13:59:25.873Z,98323.75
2023-05-05T14:02:40.722Z,98327.09
2023-05-05T14:05:42.877Z,98316.28
2023-05-05T14:09:21.999Z,98314.91
2023-05-05T14:12:23.724Z,98310.44
2023-05-05T14:15:25.443Z,98299.34
2023-05-05T14:18:27.993Z,98287.91
2023-05-05T14:21:59.122Z,98286.78
2023-05-05T14:25:02.404Z,98286.91
2023-05-05T14:28:09.260Z,98287.16
2023-05-05T14:32:05.888Z,98293.28
2023-05-05T14:35:08.087Z,98286.03
2023-05-05T14:38:09.860Z,98290.25
2023-05-05T14:41:18.874Z,98291.13
2023-05-05T14:44:23.312Z,98298.06
2023-05-05T14:47:25.812Z,98292.44
2023-05-05T14:50:29.704Z,98293.91
2023-05-05T14:53:31.423Z,98287.25
2023-05-05T14:56:46.115Z,98285.53
2023-05-05T14:59:55.503Z,98286.38
2023-05-05T15:03:02.562Z,98278.56
2023-05-05T15:10:04.261Z,98282.44
2023-05-05T15:24:09.126Z,98262.63
2023-05-05T15:27:10.826Z,98267.06
2023-05-05T15:30:22.920Z,98265.50
2023-05-05T15:33:34.766Z,98259.22
2023-05-05T15:36:50.096Z,98260.88
2023-05-05T15:39:51.843Z,98262.00
2023-05-05T15:42:53.852Z,98258.13
2023-05-05T15:45:55.472Z,98247.13
2023-05-05T15:48:56.957Z,98252.63
2023-05-05T15:51:58.725Z,98251.72
2023-05-05T15:55:00.676Z,98259.63
2023-05-05T15:58:02.354Z,98246.75
2023-05-05T16:01:14.436Z,98250.78
2023-05-05T16:04:22.032Z,98246.16
2023-05-05T16:07:30.455Z,98248.13
2023-05-05T16:10:36.952Z,98253.06
2023-05-05T16:13:39.340Z,98259.94
2023-05-05T16:16:41.034Z,98270.06
2023-05-05T16:19:42.630Z,98263.53
2023-05-05T16:22:45.911Z,98255.94
2023-05-05T16:25:49.763Z,98247.25
2023-05-05T16:28:51.294Z,98252.38
2023-05-05T16:31:54.554Z,98244.06
2023-05-05T16:34:55.983Z,98242.59
2023-05-05T16:37:58.774Z,98235.28
2023-05-05T16:41:01.094Z,98230.50
2023-05-05T16:44:03.819Z,98238.88
2023-05-05T16:47:07.805Z,98244.34
2023-05-05T16:50:12.923Z,98251.13
2023-05-05T16:53:15.755Z,98251.19
2023-05-05T16:56:24.984Z,98240.63
2023-05-05T16:59:33.425Z,98237.00
2023-05-05T17:02:46.290Z,98237.56
2023-05-05T17:05:56.080Z,98233.28
2023-05-05T17:26:19.719Z,98217.47
2023-05-05T17:29:23.159Z,98211.41
2023-05-05T17:32:24.652Z,98208.19
2023-05-05T17:35:26.796Z,98202.38
2023-05-05T17:38:28.329Z,98211.47
2023-05-05T17:41:31.650Z,98208.72
2023-05-05T17:44:33.105Z,98208.13
2023-05-05T17:47:34.609Z,98206.03
2023-05-05T17:50:36.040Z,98211.44
2023-05-05T17:53:37.440Z,98209.84
2023-05-05T17:56:38.921Z,98205.25
2023-05-05T17:59:40.505Z,98203.78
2023-05-05T18:02:42.080Z,98199.81
2023-05-05T18:05:43.621Z,98194.91
2023-05-05T18:08:45.052Z,98193.09
2023-05-05T18:11:46.473Z,98191.97
2023-05-05T18:14:47.880Z,98193.13
2023-05-05T18:17:49.428Z,98187.38
2023-05-05T18:20:50.917Z,98186.72
2023-05-05T18:23:57.295Z,98180.13
2023-05-05T18:27:05.718Z,98183.91
2023-05-05T18:30:07.929Z,98192.81
2023-05-05T18:33:09.394Z,98201.03
2023-05-05T18:36:10.849Z,98208.59
2023-05-05T18:39:12.661Z,98211.06
2023-05-05T18:42:14.127Z,98216.16
2023-05-05T18:45:15.655Z,98213.53
2023-05-05T18:48:17.079Z,98203.84
2023-05-05T18:51:18.488Z,98226.69
2023-05-05T18:54:21.174Z,98223.88
2023-05-05T18:57:22.651Z,98232.53
2023-05-05T19:00:24.516Z,98238.63
2023-05-05T19:03:26.189Z,98242.84
2023-05-05T19:06:27.734Z,98253.72
2023-05-05T19:09:29.493Z,98261.94
2023-05-05T19:12:31.009Z,98272.94
2023-05-05T19:15:32.745Z,98279.69
2023-05-05T19:18:34.286Z,98288.53
2023-05-05T19:21:35.838Z,98309.53
2023-05-05T19:24:37.240Z,98319.34
2023-05-05T19:27:38.802Z,98339.22
2023-05-05T19:30:40.294Z,98361.41
2023-05-05T19:33:45.503Z,98364.50
2023-05-05T19:36:46.937Z,98370.06
2023-05-05T19:39:49.606Z,98381.25
2023-05-05T19:42:51.200Z,98382.22
2023-05-05T19:45:52.669Z,98386.94
2023-05-05T19:48:54.207Z,98392.31
2023-05-05T19:51:56.959Z,98392.91
2023-05-05T19:54:58.624Z,98388.03
2023-05-05T19:58:00.074Z,98391.06
2023-05-05T20:01:01.698Z,98389.81
2023-05-05T20:04:03.828Z,98397.41
2023-05-05T20:07:05.336Z,98395.66
2023-05-05T20:10:07.980Z,98396.59
2023-05-05T20:13:09.578Z,98402.50
2023-05-05T20:16:11.674Z,98403.34
2023-05-05T20:19:13.292Z,98398.13
2023-05-05T20:22:14.818Z,98393.41
2023-05-05T20:25:17.175Z,98390.66
2023-05-05T20:28:18.588Z,98392.19
2023-05-05T20:31:20.051Z,98389.31
2023-05-05T20:34:24.028Z,98388.56
2023-05-05T20:37:27.038Z,98386.94
2023-05-05T20:40:28.850Z,98385.50
2023-05-05T20:43:30.309Z,98389.16
2023-05-05T20:46:32.851Z,98382.28
2023-05-05T20:49:34.631Z,98382.56
2023-05-05T20:52:36.157Z,98381.97
2023-05-05T20:55:37.637Z,98374.38
2023-05-05T20:58:39.050Z,98370.78
2023-05-05T21:01:40.597Z,98365.94
2023-05-05T21:04:42.244Z,98360.94
2023-05-05T21:07:44.532Z,98374.19
2023-05-05T21:10:45.993Z,98367.88
2023-05-05T21:13:47.397Z,98369.41
2023-05-05T21:16:48.833Z,98364.16
2023-05-05T21:19:50.395Z,98357.69
2023-05-05T21:22:51.807Z,98355.00
2023-05-05T21:25:53.336Z,98356.50
2023-05-05T21:28:54.693Z,98352.28
2023-05-05T21:31:56.182Z,98361.13
2023-05-05T21:34:57.620Z,98361.94
2023-05-05T21:37:59.117Z,98362.94
2023-05-05T21:41:00.585Z,98363.44
2023-05-05T21:44:02.459Z,98349.13
2023-05-05T21:47:05.369Z,98354.66
2023-05-05T21:50:07.611Z,98354.81
2023-05-05T21:53:09.177Z,98355.19
2023-05-05T21:56:10.648Z,98347.63
2023-05-05T21:59:12.019Z,98347.63
2023-05-05T22:02:13.473Z,98351.00
2023-05-05T22:05:14.979Z,98353.09
2023-05-05T22:08:17.145Z,98352.41
2023-05-05T22:11:18.711Z,98351.63
2023-05-05T22:14:20.205Z,98359.00
2023-05-05T22:17:21.648Z,98365.94
2023-05-05T22:20:23.181Z,98366.91
2023-05-05T22:23:24.588Z,98368.13
2023-05-05T22:26:25.979Z,98367.56
2023-05-05T22:29:27.496Z,98371.44
2023-05-05T22:32:28.933Z,98371.28
2023-05-05T22:35:30.423Z,98362.50
2023-05-05T22:38:31.895Z,98368.56
2023-05-05T22:41:33.354Z,98356.03
2023-05-05T22:44:34.777Z,98356.06
2023-05-05T22:47:36.188Z,98345.75
2023-05-05T22:50:37.882Z,98364.47
2023-05-05T22:53:39.461Z,98365.44
2023-05-05T22:56:41.002Z,98356.03
2023-05-05T22:59:42.486Z,98361.84
2023-05-05T23:02:43.969Z,98360.19
2023-05-05T23:05:45.429Z,98351.34
2023-05-05T23:08:46.870Z,98349.97
2023-05-05T23:11:48.438Z,98348.06
2023-05-05T23:14:50.013Z,98355.66
2023-05-05T23:17:51.764Z,98357.97
2023-05-05T23:20:53.185Z,98359.94
2023-05-05T23:23:55.380Z,98358.75
2023-05-05T23:26:59.396Z,98351.28
2023-05-05T23:30:01.384Z,98351.72
2023-05-05T23:33:03.679Z,98343.72
2023-05-05T23:36:05.653Z,98349.63
2023-05-05T23:39:07.697Z,98359.00
2023-05-05T23:42:09.117Z,98356.94
2023-05-05T23:45:11.541Z,98355.00
2023-05-05T23:48:13.250Z,98355.00
2023-05-05T23:51:14.663Z,98358.84
2023-05-05T23:54:16.113Z,98362.44
2023-05-05T23:57:17.637Z,98376.34
